createdAt,value
2018-03-22T00:02:08.196Z,-7.00
2018-03-22T00:04:35.747Z,-7.01
2018-03-22T00:07:03.283Z,-7.03
2018-03-22T00:09:30.821Z,-7.07
2018-03-22T00:11:58.383Z,-7.10
2018-03-22T00:14:26.005Z,-7.08
2018-03-22T00:16:53.555Z,-7.05
2018-03-22T00:19:21.146Z,-7.05
2018-03-22T00:21:48.728Z,-7.02
2018-03-22T00:24:16.289Z,-7.05
2018-03-22T00:26:43.873Z,-7.06
2018-03-22T00:29:11.453Z,-7.05
2018-03-22T00:31:39.078Z,-7.05
2018-03-22T00:34:06.635Z,-7.06
2018-03-22T00:36:34.227Z,-7.11
2018-03-22T00:39:01.759Z,-7.11
2018-03-22T00:41:29.266Z,-7.14
2018-03-22T00:43:56.802Z,-7.13
2018-03-22T00:46:24.377Z,-7.11
2018-03-22T00:48:51.932Z,-7.14
2018-03-22T00:51:19.482Z,-7.16
2018-03-22T00:53:47.074Z,-7.18
2018-03-22T00:56:14.668Z,-7.18
2018-03-22T00:58:42.295Z,-7.19
2018-03-22T01:01:10.016Z,-7.20
2018-03-22T01:03:37.576Z,-7.19
2018-03-22T01:06:05.166Z,-7.22
2018-03-22T01:08:32.747Z,-7.21
2018-03-22T01:11:00.305Z,-7.19
2018-03-22T01:13:27.917Z,-7.21
2018-03-22T01:15:55.485Z,-7.20
2018-03-22T01:18:23.078Z,-7.23
2018-03-22T01:20:50.650Z,-7.25
2018-03-22T01:23:18.192Z,-7.27
2018-03-22T01:25:45.764Z,-7.31
2018-03-22T01:28:13.345Z,-7.31
2018-03-22T01:30:42.722Z,-7.29
2018-03-22T01:33:10.275Z,-7.33
2018-03-22T01:35:37.860Z,-7.35
2018-03-22T01:38:05.433Z,-7.36
2018-03-22T01:40:32.994Z,-7.36
2018-03-22T01:43:00.557Z,-7.34
2018-03-22T01:45:28.088Z,-7.37
2018-03-22T01:47:55.672Z,-7.38
2018-03-22T01:50:23.228Z,-7.43
2018-03-22T01:53:02.430Z,-7.51
2018-03-22T01:55:29.969Z,-7.55
2018-03-22T01:57:57.529Z,-7.54
2018-03-22T02:00:25.087Z,-7.50
2018-03-22T02:02:52.698Z,-7.47
2018-03-22T02:05:20.279Z,-7.50
2018-03-22T02:07:47.825Z,-7.52
2018-03-22T02:10:15.419Z,-7.57
2018-03-22T02:12:42.984Z,-7.57
2018-03-22T02:15:10.554Z,-7.56
2018-03-22T02:17:38.112Z,-7.60
2018-03-22T02:20:05.682Z,-7.57
2018-03-22T02:22:33.226Z,-7.60
2018-03-22T02:25:00.808Z,-7.66
2018-03-22T02:27:28.387Z,-7.69
2018-03-22T02:29:55.987Z,-7.49
2018-03-22T02:32:24.756Z,-7.52
2018-03-22T02:34:52.302Z,-7.59
2018-03-22T02:37:19.887Z,-7.56
2018-03-22T02:39:47.442Z,-7.63
2018-03-22T02:42:15.352Z,-7.78
2018-03-22T02:44:43.330Z,-7.91
2018-03-22T02:47:11.189Z,-8.06
2018-03-22T02:49:38.729Z,-8.06
2018-03-22T02:52:06.286Z,-8.06
2018-03-22T02:54:33.829Z,-8.03
2018-03-22T02:57:01.402Z,-8.02
2018-03-22T02:59:28.953Z,-8.00
2018-03-22T03:01:56.522Z,-7.87
2018-03-22T03:04:24.043Z,-7.81
2018-03-22T03:06:51.559Z,-7.79
2018-03-22T03:09:19.085Z,-7.78
2018-03-22T03:11:46.597Z,-7.78
2018-03-22T03:14:14.130Z,-7.85
2018-03-22T03:16:41.639Z,-7.83
2018-03-22T03:19:09.164Z,-7.85
2018-03-22T03:21:36.729Z,-7.87
2018-03-22T03:24:04.276Z,-7.85
2018-03-22T03:26:31.831Z,-7.77
2018-03-22T03:28:59.377Z,-7.73
2018-03-22T03:31:26.945Z,-7.70
2018-03-22T03:33:54.512Z,-7.73
2018-03-22T03:36:22.057Z,-7.61
2018-03-22T03:38:49.637Z,-7.61
2018-03-22T03:41:17.195Z,-7.63
2018-03-22T03:43:44.751Z,-7.65
2018-03-22T03:46:12.315Z,-7.69
2018-03-22T03:48:39.850Z,-7.73
2018-03-22T03:51:07.384Z,-7.74
2018-03-22T03:53:34.940Z,-7.68
2018-03-22T03:56:03.223Z,-7.51
2018-03-22T03:58:30.779Z,-7.58
2018-03-22T04:00:58.349Z,-7.59
2018-03-22T04:03:25.893Z,-7.61
2018-03-22T04:05:53.451Z,-7.55
2018-03-22T04:08:21.017Z,-7.55
2018-03-22T04:10:48.566Z,-7.63
2018-03-22T04:13:16.117Z,-7.62
2018-03-22T04:15:43.679Z,-7.61
2018-03-22T04:18:11.237Z,-7.53
2018-03-22T04:20:38.804Z,-7.59
2018-03-22T04:23:06.362Z,-7.67
2018-03-22T04:25:33.934Z,-7.66
2018-03-22T04:28:01.491Z,-7.52
2018-03-22T04:30:29.057Z,-7.58
2018-03-22T04:32:56.635Z,-7.65
2018-03-22T04:35:24.181Z,-7.54
2018-03-22T04:37:51.738Z,-7.52
2018-03-22T04:40:19.284Z,-7.61
2018-03-22T04:42:46.862Z,-7.62
2018-03-22T04:45:14.414Z,-7.56
2018-03-22T04:47:41.954Z,-7.57
2018-03-22T04:50:09.529Z,-7.55
2018-03-22T04:52:37.085Z,-7.54
2018-03-22T04:55:04.644Z,-7.54
2018-03-22T04:57:32.205Z,-7.57
2018-03-22T04:59:59.793Z,-7.58
2018-03-22T05:02:27.340Z,-7.56
2018-03-22T05:04:54.910Z,-7.52
2018-03-22T05:07:22.487Z,-7.52
2018-03-22T05:09:50.028Z,-7.47
2018-03-22T05:12:17.559Z,-7.37
2018-03-22T05:14:45.111Z,-7.41
2018-03-22T05:17:12.651Z,-7.40
2018-03-22T05:19:40.252Z,-7.35
2018-03-22T05:22:07.812Z,-7.28
2018-03-22T05:24:35.376Z,-7.21
2018-03-22T05:27:03.214Z,-7.13
2018-03-22T05:29:30.772Z,-7.15
2018-03-22T05:31:58.309Z,-7.17
2018-03-22T05:34:25.896Z,-7.13
2018-03-22T05:36:53.471Z,-7.07
2018-03-22T05:39:21.045Z,-7.05
2018-03-22T05:41:48.622Z,-7.01
2018-03-22T05:44:16.166Z,-6.94
2018-03-22T05:46:43.712Z,-6.82
2018-03-22T05:49:11.247Z,-6.77
2018-03-22T05:51:38.802Z,-6.65
2018-03-22T05:54:07.205Z,-6.76
2018-03-22T05:56:34.750Z,-6.46
2018-03-22T05:59:02.362Z,-6.37
2018-03-22T06:01:29.901Z,-6.29
2018-03-22T06:03:57.525Z,-6.24
2018-03-22T06:06:25.097Z,-6.17
2018-03-22T06:08:52.711Z,-6.03
2018-03-22T06:11:20.230Z,-5.87
2018-03-22T06:13:47.764Z,-5.79
2018-03-22T06:16:15.349Z,-5.74
2018-03-22T06:18:42.913Z,-5.61
2018-03-22T06:21:10.423Z,-5.42
2018-03-22T06:23:37.956Z,-5.26
2018-03-22T06:26:05.476Z,-5.10
2018-03-22T06:28:33.014Z,-4.88
2018-03-22T06:31:00.554Z,-4.86
2018-03-22T06:33:28.116Z,-4.84
2018-03-22T06:35:55.693Z,-4.69
2018-03-22T06:38:23.258Z,-4.49
2018-03-22T06:40:50.794Z,-4.12
2018-03-22T06:43:18.359Z,-4.04
2018-03-22T06:45:45.920Z,-3.78
2018-03-22T06:48:13.484Z,-3.60
2018-03-22T06:50:41.070Z,-3.28
2018-03-22T06:53:08.612Z,-3.19
2018-03-22T06:55:36.150Z,-3.06
2018-03-22T06:58:03.724Z,-2.77
2018-03-22T07:00:31.263Z,-2.65
2018-03-22T07:02:58.842Z,-2.49
2018-03-22T07:05:26.439Z,-2.17
2018-03-22T07:07:53.998Z,-1.77
2018-03-22T07:10:21.551Z,-1.59
2018-03-22T07:12:49.096Z,-1.68
2018-03-22T07:15:16.627Z,-1.69
2018-03-22T07:17:44.185Z,-1.60
2018-03-22T07:20:11.749Z,-1.35
2018-03-22T07:22:39.301Z,-1.11
2018-03-22T07:25:06.853Z,-1.00
2018-03-22T07:27:34.381Z,-0.84
2018-03-22T07:30:01.934Z,-0.72
2018-03-22T07:32:29.504Z,-0.70
2018-03-22T07:34:57.062Z,-0.69
2018-03-22T07:37:24.613Z,-0.59
2018-03-22T07:39:52.184Z,-0.46
2018-03-22T07:42:19.758Z,-0.38
2018-03-22T07:44:49.220Z,-0.39
2018-03-22T07:47:16.782Z,-0.32
2018-03-22T07:49:44.357Z,-0.24
2018-03-22T07:52:11.874Z,-0.16
2018-03-22T07:54:39.424Z,-0.05
2018-03-22T07:57:06.980Z,0.12
2018-03-22T07:59:34.549Z,0.07
2018-03-22T08:02:02.102Z,0.20
2018-03-22T08:04:29.653Z,0.41
2018-03-22T08:06:57.229Z,0.44
2018-03-22T08:09:24.768Z,0.54
2018-03-22T08:11:52.358Z,0.67
2018-03-22T08:14:19.914Z,0.75
2018-03-22T08:16:47.490Z,0.66
2018-03-22T08:19:15.030Z,0.43
2018-03-22T08:21:42.590Z,0.56
2018-03-22T08:24:10.140Z,0.73
2018-03-22T08:26:37.682Z,0.95
2018-03-22T08:29:05.246Z,1.03
2018-03-22T08:31:33.201Z,1.19
2018-03-22T08:34:00.775Z,1.10
2018-03-22T08:36:28.308Z,1.10
2018-03-22T08:38:55.828Z,1.18
2018-03-22T08:41:23.419Z,1.28
2018-03-22T08:43:50.921Z,1.47
2018-03-22T08:46:18.478Z,1.59
2018-03-22T08:48:46.048Z,1.67
2018-03-22T08:51:13.607Z,1.65
2018-03-22T08:53:41.158Z,1.83
2018-03-22T08:56:08.719Z,1.99
2018-03-22T08:58:36.278Z,1.97
2018-03-22T09:01:03.809Z,2.03
2018-03-22T09:03:31.371Z,1.94
2018-03-22T09:05:58.920Z,2.00
2018-03-22T09:14:07.453Z,2.16
2018-03-22T09:16:34.964Z,2.19
2018-03-22T09:19:02.526Z,2.37
2018-03-22T09:21:30.070Z,2.31
2018-03-22T09:23:57.615Z,2.34
2018-03-22T09:26:25.180Z,2.53
2018-03-22T09:28:52.784Z,2.65
2018-03-22T09:31:20.333Z,2.53
2018-03-22T09:33:47.896Z,2.70
2018-03-22T09:36:15.482Z,2.77
2018-03-22T09:38:43.022Z,2.53
2018-03-22T09:41:10.568Z,2.38
2018-03-22T09:43:38.127Z,2.41
2018-03-22T09:46:05.674Z,2.71
2018-03-22T09:48:33.391Z,2.91
2018-03-22T09:51:00.946Z,3.01
2018-03-22T09:53:28.510Z,3.03
2018-03-22T09:55:56.099Z,2.51
2018-03-22T09:58:23.646Z,2.79
2018-03-22T10:00:51.246Z,2.84
2018-03-22T10:03:18.779Z,2.67
2018-03-22T10:05:46.635Z,2.55
2018-03-22T10:08:14.198Z,2.77
2018-03-22T10:10:41.704Z,3.10
2018-03-22T10:13:09.267Z,3.02
2018-03-22T10:15:36.815Z,3.08
2018-03-22T10:18:04.575Z,3.28
2018-03-22T10:20:32.133Z,3.29
2018-03-22T10:22:59.699Z,3.49
2018-03-22T10:25:27.192Z,3.52
2018-03-22T10:27:54.739Z,3.54
2018-03-22T10:30:22.310Z,3.40
2018-03-22T10:32:49.924Z,3.42
2018-03-22T10:35:17.664Z,3.40
2018-03-22T10:37:45.534Z,3.66
2018-03-22T10:40:13.143Z,3.81
2018-03-22T10:42:40.645Z,3.71
2018-03-22T10:45:08.312Z,3.56
2018-03-22T10:47:35.983Z,3.67
2018-03-22T10:50:03.523Z,3.92
2018-03-22T10:52:31.079Z,4.04
2018-03-22T10:54:58.638Z,3.63
2018-03-22T10:57:28.588Z,3.67
2018-03-22T10:59:56.451Z,3.59
2018-03-22T11:02:29.961Z,3.55
2018-03-22T11:05:00.364Z,3.85
2018-03-22T11:07:29.280Z,3.68
2018-03-22T11:09:57.140Z,3.89
2018-03-22T11:12:26.011Z,4.04
2018-03-22T11:14:53.589Z,3.75
2018-03-22T11:17:21.890Z,3.61
2018-03-22T11:19:49.469Z,3.68
2018-03-22T11:22:17.013Z,3.83
2018-03-22T11:24:44.620Z,3.81
2018-03-22T11:27:12.897Z,4.04
2018-03-22T11:29:40.441Z,4.30
2018-03-22T11:32:08.036Z,4.40
2018-03-22T11:34:35.670Z,4.46
2018-03-22T11:37:03.222Z,4.51
2018-03-22T11:39:30.926Z,4.42
2018-03-22T11:41:58.481Z,4.45
2018-03-22T11:44:26.998Z,4.28
2018-03-22T11:46:54.585Z,4.37
2018-03-22T11:49:22.264Z,4.44
2018-03-22T11:51:51.414Z,4.67
2018-03-22T11:54:19.157Z,4.83
2018-03-22T11:56:46.719Z,5.24
2018-03-22T11:59:14.397Z,5.84
2018-03-22T12:01:42.445Z,6.90
2018-03-22T12:04:10.266Z,7.35
2018-03-22T12:06:37.831Z,7.43
2018-03-22T12:09:05.617Z,8.04
2018-03-22T12:11:34.214Z,8.97
2018-03-22T12:14:01.776Z,9.22
2018-03-22T12:16:29.521Z,7.15
2018-03-22T12:18:57.049Z,7.14
2018-03-22T12:21:24.785Z,7.29
2018-03-22T12:23:52.289Z,7.94
2018-03-22T12:26:19.877Z,6.92
2018-03-22T12:28:47.370Z,6.48
2018-03-22T12:31:14.887Z,6.30
2018-03-22T12:33:43.568Z,7.00
2018-03-22T12:36:11.692Z,7.08
2018-03-22T12:38:39.292Z,7.78
2018-03-22T12:41:06.851Z,8.74
2018-03-22T12:43:34.474Z,8.09
2018-03-22T12:46:02.047Z,7.57
2018-03-22T12:48:29.613Z,7.72
2018-03-22T12:50:57.182Z,7.78
2018-03-22T12:53:25.448Z,7.20
2018-03-22T12:55:53.082Z,7.99
2018-03-22T12:58:20.640Z,8.50
2018-03-22T13:00:48.291Z,8.57
2018-03-22T13:03:16.208Z,8.75
2018-03-22T13:05:43.855Z,8.20
2018-03-22T13:08:11.431Z,8.31
2018-03-22T13:10:39.188Z,8.50
2018-03-22T13:13:06.881Z,8.24
2018-03-22T13:15:34.522Z,8.88
2018-03-22T13:18:02.144Z,9.30
2018-03-22T13:20:31.572Z,9.44
2018-03-22T13:22:59.130Z,8.91
2018-03-22T13:25:26.718Z,9.34
2018-03-22T13:27:54.449Z,9.74
2018-03-22T13:30:22.026Z,9.14
2018-03-22T13:32:49.612Z,8.94
2018-03-22T13:35:17.775Z,8.73
2018-03-22T13:37:45.377Z,10.04
2018-03-22T13:40:13.553Z,10.82
2018-03-22T13:42:41.405Z,10.47
2018-03-22T13:45:09.067Z,8.64
2018-03-22T13:47:36.642Z,7.80
2018-03-22T13:50:04.202Z,8.14
2018-03-22T13:52:33.357Z,9.02
2018-03-22T13:55:00.895Z,8.43
2018-03-22T13:57:28.905Z,8.46
2018-03-22T13:59:56.490Z,8.78
2018-03-22T14:02:26.893Z,8.19
2018-03-22T14:04:54.646Z,8.03
2018-03-22T14:07:22.387Z,8.24
2018-03-22T14:09:50.002Z,8.25
2018-03-22T14:12:17.584Z,8.22
2018-03-22T14:14:45.142Z,8.23
2018-03-22T14:17:13.207Z,8.36
2018-03-22T14:19:40.788Z,8.89
2018-03-22T14:22:08.917Z,8.26
2018-03-22T14:24:36.572Z,8.78
2018-03-22T14:27:04.195Z,7.56
2018-03-22T14:29:31.834Z,7.08
2018-03-22T14:31:59.439Z,8.21
2018-03-22T14:34:27.010Z,8.73
2018-03-22T14:36:54.578Z,9.01
2018-03-22T14:39:22.146Z,8.30
2018-03-22T14:41:49.756Z,7.21
2018-03-22T14:44:17.324Z,7.53
2018-03-22T14:46:44.888Z,7.75
2018-03-22T14:49:12.885Z,7.68
2018-03-22T14:51:40.621Z,8.45
2018-03-22T14:54:08.177Z,7.73
2018-03-22T14:56:36.578Z,8.14
2018-03-22T14:59:04.152Z,8.76
2018-03-22T15:01:31.730Z,9.01
2018-03-22T15:03:59.309Z,8.50
2018-03-22T15:06:30.173Z,7.84
2018-03-22T15:08:57.753Z,7.66
2018-03-22T15:11:32.529Z,7.72
2018-03-22T15:14:04.101Z,7.15
2018-03-22T15:16:31.910Z,7.00
2018-03-22T15:19:03.840Z,6.20
2018-03-22T15:21:31.820Z,5.69
2018-03-22T15:24:12.171Z,5.57
2018-03-22T15:26:42.202Z,5.06
2018-03-22T15:29:10.200Z,4.83
2018-03-22T15:31:38.324Z,4.55
2018-03-22T15:34:07.620Z,4.50
2018-03-22T15:36:35.197Z,4.75
2018-03-22T15:39:07.369Z,5.17
2018-03-22T15:41:34.939Z,5.18
2018-03-22T15:44:07.413Z,4.89
2018-03-22T15:46:34.988Z,4.91
2018-03-22T15:49:03.851Z,4.88
2018-03-22T15:51:38.376Z,4.70
2018-03-22T15:54:07.790Z,4.08
2018-03-22T15:56:35.392Z,4.42
2018-03-22T15:59:02.995Z,4.37
2018-03-22T16:01:31.022Z,4.46
2018-03-22T16:03:58.639Z,4.40
2018-03-22T16:06:27.275Z,4.21
2018-03-22T16:08:54.916Z,4.19
2018-03-22T16:11:22.505Z,4.11
2018-03-22T16:13:50.070Z,4.06
2018-03-22T16:16:17.848Z,4.16
2018-03-22T16:18:45.455Z,4.14
2018-03-22T16:21:13.204Z,3.92
2018-03-22T16:23:40.799Z,3.76
2018-03-22T16:26:08.378Z,3.68
2018-03-22T16:28:35.941Z,3.67
2018-03-22T16:31:03.551Z,3.66
2018-03-22T16:33:31.181Z,3.69
2018-03-22T16:35:58.748Z,3.75
2018-03-22T16:38:26.437Z,3.62
2018-03-22T16:40:54.026Z,3.64
2018-03-22T16:43:24.387Z,3.61
2018-03-22T16:45:51.973Z,3.58
2018-03-22T16:48:19.613Z,3.64
2018-03-22T16:50:47.263Z,3.49
2018-03-22T16:53:14.826Z,3.50
2018-03-22T16:55:42.386Z,3.46
2018-03-22T16:58:10.046Z,3.38
2018-03-22T17:00:39.669Z,3.34
2018-03-22T17:03:07.460Z,3.36
2018-03-22T17:05:35.073Z,3.27
2018-03-22T17:08:02.648Z,3.17
2018-03-22T17:10:31.354Z,3.05
2018-03-22T17:12:58.930Z,2.98
2018-03-22T17:15:26.525Z,2.78
2018-03-22T17:17:54.684Z,2.63
2018-03-22T17:20:22.767Z,2.56
2018-03-22T17:22:50.359Z,2.39
2018-03-22T17:25:17.933Z,2.28
2018-03-22T17:27:45.500Z,2.26
2018-03-22T17:30:13.147Z,2.25
2018-03-22T17:32:43.151Z,2.10
2018-03-22T17:35:10.755Z,2.07
2018-03-22T17:37:38.386Z,1.99
2018-03-22T17:40:05.906Z,1.91
2018-03-22T17:42:33.577Z,1.84
2018-03-22T17:45:01.146Z,1.83
2018-03-22T17:47:28.876Z,1.83
2018-03-22T17:49:56.703Z,1.82
2018-03-22T17:52:24.261Z,1.77
2018-03-22T17:54:51.843Z,1.75
2018-03-22T17:57:19.395Z,1.73
2018-03-22T17:59:46.937Z,1.71
2018-03-22T18:02:14.495Z,1.75
2018-03-22T18:04:42.060Z,1.79
2018-03-22T18:07:09.641Z,1.80
2018-03-22T18:09:37.177Z,1.78
2018-03-22T18:12:04.723Z,1.73
2018-03-22T18:14:32.274Z,1.65
2018-03-22T18:16:59.844Z,1.66
2018-03-22T18:19:27.395Z,1.60
2018-03-22T18:21:54.939Z,1.54
2018-03-22T18:24:22.496Z,1.49
2018-03-22T18:26:50.063Z,1.41
2018-03-22T18:29:17.611Z,1.35
2018-03-22T18:31:45.167Z,1.35
2018-03-22T18:34:12.665Z,1.29
2018-03-22T18:36:40.199Z,1.37
2018-03-22T18:39:07.740Z,1.27
2018-03-22T18:41:35.309Z,1.19
2018-03-22T18:44:02.902Z,1.19
2018-03-22T18:46:30.408Z,1.17
2018-03-22T18:48:57.972Z,1.32
2018-03-22T18:51:25.533Z,1.41
2018-03-22T18:53:53.081Z,1.41
2018-03-22T18:56:20.636Z,1.46
2018-03-22T18:58:48.178Z,1.46
2018-03-22T19:01:15.799Z,1.46
2018-03-22T19:03:43.346Z,1.50
2018-03-22T19:06:11.274Z,1.47
2018-03-22T19:08:38.832Z,1.47
2018-03-22T19:11:06.369Z,1.54
2018-03-22T19:13:33.929Z,1.64
2018-03-22T19:16:01.503Z,1.74
2018-03-22T19:18:29.090Z,1.82
2018-03-22T19:20:56.585Z,1.92
2018-03-22T19:23:24.129Z,1.98
2018-03-22T19:25:51.696Z,2.02
2018-03-22T19:28:19.263Z,2.08
2018-03-22T19:30:46.758Z,2.08
2018-03-22T19:33:14.270Z,2.08
2018-03-22T19:35:41.830Z,2.08
2018-03-22T19:38:09.386Z,2.09
2018-03-22T19:40:36.962Z,2.04
2018-03-22T19:43:04.505Z,2.12
2018-03-22T19:45:32.047Z,2.10
2018-03-22T19:47:59.609Z,2.03
2018-03-22T19:50:27.168Z,1.98
2018-03-22T19:52:54.771Z,1.87
2018-03-22T19:55:22.320Z,1.92
2018-03-22T19:57:49.868Z,1.89
2018-03-22T20:00:17.448Z,1.91
2018-03-22T20:02:45.039Z,1.97
2018-03-22T20:05:12.619Z,1.97
2018-03-22T20:07:40.149Z,1.96
2018-03-22T20:10:07.691Z,2.06
2018-03-22T20:12:35.280Z,2.08
2018-03-22T20:15:02.835Z,2.19
2018-03-22T20:17:30.444Z,2.32
2018-03-22T20:19:58.004Z,2.23
2018-03-22T20:22:25.538Z,2.22
2018-03-22T20:24:53.070Z,2.18
2018-03-22T20:27:20.622Z,2.18
2018-03-22T20:29:48.200Z,2.24
2018-03-22T20:32:15.748Z,2.17
2018-03-22T20:34:43.355Z,2.19
2018-03-22T20:37:10.913Z,2.17
2018-03-22T20:39:38.497Z,2.19
2018-03-22T20:42:06.046Z,2.15
2018-03-22T20:44:33.546Z,2.09
2018-03-22T20:47:01.102Z,2.09
2018-03-22T20:49:28.648Z,2.00
2018-03-22T20:51:56.245Z,1.92
2018-03-22T20:54:23.796Z,1.86
2018-03-22T20:56:52.271Z,1.84
2018-03-22T20:59:19.879Z,1.83
2018-03-22T21:01:47.473Z,1.78
2018-03-22T21:04:15.404Z,1.78
2018-03-22T21:06:42.984Z,1.77
2018-03-22T21:09:10.543Z,1.73
2018-03-22T21:11:38.108Z,1.76
2018-03-22T21:14:05.661Z,1.65
2018-03-22T21:16:33.257Z,1.60
2018-03-22T21:19:00.814Z,1.50
2018-03-22T21:21:28.428Z,1.46
2018-03-22T21:23:56.004Z,1.49
2018-03-22T21:26:23.577Z,1.51
2018-03-22T21:28:51.139Z,1.45
2018-03-22T21:31:18.698Z,1.44
2018-03-22T21:33:46.326Z,1.33
2018-03-22T21:36:14.007Z,1.21
2018-03-22T21:38:41.556Z,1.13
2018-03-22T21:41:09.119Z,1.07
2018-03-22T21:43:36.874Z,1.04
2018-03-22T21:46:04.493Z,1.03
2018-03-22T21:48:32.053Z,1.08
2018-03-22T21:51:01.361Z,1.10
2018-03-22T21:53:28.908Z,1.16
2018-03-22T21:55:56.479Z,1.19
2018-03-22T21:58:24.054Z,1.22
2018-03-22T22:00:51.728Z,1.22
2018-03-22T22:03:19.508Z,1.16
2018-03-22T22:05:47.213Z,1.14
2018-03-22T22:08:15.010Z,1.10
2018-03-22T22:10:42.574Z,1.03
2018-03-22T22:13:10.605Z,1.01
2018-03-22T22:15:38.176Z,0.98
2018-03-22T22:18:05.835Z,0.83
2018-03-22T22:20:33.409Z,1.04
2018-03-22T22:23:00.980Z,1.11
2018-03-22T22:25:28.748Z,1.10
2018-03-22T22:27:56.316Z,1.15
2018-03-22T22:30:23.882Z,1.14
2018-03-22T22:32:51.479Z,1.13
2018-03-22T22:35:19.421Z,1.09
2018-03-22T22:37:47.116Z,1.07
2018-03-22T22:40:14.827Z,1.04
2018-03-22T22:42:42.395Z,1.04
2018-03-22T22:45:11.038Z,1.06
2018-03-22T22:47:38.606Z,1.05
2018-03-22T22:50:06.186Z,1.04
2018-03-22T22:52:33.763Z,1.03
2018-03-22T22:55:01.334Z,1.00
2018-03-22T22:57:28.950Z,1.01
2018-03-22T22:59:56.526Z,1.00
2018-03-22T23:02:24.116Z,0.97
2018-03-22T23:04:56.528Z,1.00
2018-03-22T23:07:25.683Z,0.99
2018-03-22T23:09:53.268Z,0.97
2018-03-22T23:12:20.892Z,0.96
2018-03-22T23:14:48.449Z,0.96
2018-03-22T23:17:18.692Z,0.94
2018-03-22T23:19:47.576Z,0.90
2018-03-22T23:22:15.436Z,0.84
2018-03-22T23:24:43.273Z,0.84
2018-03-22T23:27:11.936Z,0.86
2018-03-22T23:29:39.554Z,0.90
2018-03-22T23:32:07.292Z,0.84
2018-03-22T23:34:35.077Z,0.81
2018-03-22T23:37:04.762Z,0.80
2018-03-22T23:39:37.556Z,0.82
2018-03-22T23:42:05.459Z,0.77
2018-03-22T23:44:33.332Z,0.77
2018-03-22T23:47:03.442Z,0.68
2018-03-22T23:49:31.089Z,0.72
2018-03-22T23:51:58.686Z,0.67
2018-03-22T23:54:31.981Z,0.70
2018-03-22T23:57:00.008Z,0.74
2018-03-22T23:59:27.576Z,0.70
